< < Back
Terminal Aerodrome Forecast


Current Version              Previous Versions:   1  2  3  4  5  6  7  8  9  

Terminal Aerodrome Forecast

957
FTUS44 KBMX 230100 AAA
TAFMGM
TAF AMD
KMGM 230122Z 2301/2324 31004KT P6SM SCT025 BKN050
     FM230300 00000KT 4SM BR SKC
     FM230600 00000KT 2SM BR SCT002
     FM231200 34005KT P6SM SKC=

Latest METAR

901
SAUS80 KWBC 230958
MTRMGM
METAR KMGM 230953Z 25004KT 1/4SM FG VV001 16/15 A2991 RMK AO2 SLP125
T01560150


USA.gov is the U.S. government's official web portal to all federal, state and local government web resources and services.